createdAt,value
2018-11-23T00:00:43.049Z,101078.25
2018-11-23T00:01:51.675Z,101078.71
2018-11-23T00:03:03.249Z,101076.12
2018-11-23T00:04:13.116Z,101079.13
2018-11-23T00:05:21.756Z,101078.70
2018-11-23T00:06:33.051Z,101078.25
2018-11-23T00:07:40.471Z,101076.53
2018-11-23T00:08:48.660Z,101075.66
2018-11-23T00:09:58.639Z,101078.70
2018-11-23T00:11:05.686Z,101075.66
2018-11-23T00:12:14.742Z,101076.52
2018-11-23T00:13:22.963Z,101074.81
2018-11-23T00:14:29.715Z,101073.09
2018-11-23T00:15:39.437Z,101073.08
2018-11-23T00:16:51.086Z,101078.27
2018-11-23T00:17:59.383Z,101073.95
2018-11-23T00:19:06.146Z,101072.23
2018-11-23T00:20:16.307Z,101078.70
2018-11-23T00:21:25.341Z,101077.81
2018-11-23T00:22:32.420Z,101070.50
2018-11-23T00:23:39.490Z,101073.07
2018-11-23T00:24:48.472Z,101072.63
2018-11-23T00:25:56.355Z,101070.05
2018-11-23T00:27:05.373Z,101073.08
2018-11-23T00:28:14.114Z,101070.94
2018-11-23T00:29:22.132Z,101076.96
2018-11-23T00:30:32.127Z,101081.27
2018-11-23T00:31:46.108Z,101074.35
2018-11-23T00:32:56.679Z,101074.80
2018-11-23T00:34:04.988Z,101074.81
2018-11-23T00:35:13.626Z,101086.87
2018-11-23T00:36:22.224Z,101079.12
2018-11-23T00:37:29.660Z,101073.06
2018-11-23T00:38:36.943Z,101079.98
2018-11-23T00:39:43.392Z,101078.25
2018-11-23T00:40:50.966Z,101077.81
2018-11-23T00:41:58.698Z,101080.39
2018-11-23T00:43:06.404Z,101073.94
2018-11-23T00:44:17.040Z,101072.20
2018-11-23T00:45:29.441Z,101079.11
2018-11-23T00:46:40.723Z,101077.38
2018-11-23T00:47:46.743Z,101070.48
2018-11-23T00:48:53.476Z,101072.62
2018-11-23T00:50:04.949Z,101073.06
2018-11-23T00:51:15.734Z,101071.34
2018-11-23T00:52:28.916Z,101075.66
2018-11-23T00:53:42.748Z,101073.06
2018-11-23T00:54:54.302Z,101074.79
2018-11-23T00:56:03.606Z,101073.50
2018-11-23T00:57:11.110Z,101069.17
2018-11-23T00:58:22.121Z,101072.64
2018-11-23T00:59:34.146Z,101074.34
2018-11-23T01:00:42.752Z,101065.72
2018-11-23T01:01:51.829Z,101061.40
2018-11-23T01:02:59.336Z,101067.45
2018-11-23T01:04:10.918Z,101070.04
2018-11-23T01:05:18.349Z,101068.74
2018-11-23T01:06:26.876Z,101063.13
2018-11-23T01:07:36.270Z,101067.45
2018-11-23T01:08:44.975Z,101065.73
2018-11-23T01:09:51.690Z,101067.44
2018-11-23T01:11:00.369Z,101073.06
2018-11-23T01:12:07.019Z,101065.28
2018-11-23T01:13:14.443Z,101070.91
2018-11-23T01:14:23.357Z,101067.45
2018-11-23T01:15:30.178Z,101060.56
2018-11-23T01:16:39.562Z,101066.16
2018-11-23T01:17:47.703Z,101068.30
2018-11-23T01:18:59.343Z,101068.31
2018-11-23T01:20:09.634Z,101063.98
2018-11-23T01:21:21.001Z,101066.14
2018-11-23T01:22:27.840Z,101064.42
2018-11-23T01:23:34.222Z,101066.16
2018-11-23T01:24:42.031Z,101059.27
2018-11-23T01:25:50.760Z,101066.58
2018-11-23T01:26:58.383Z,101062.25
2018-11-23T01:28:11.182Z,101065.30
2018-11-23T01:29:19.067Z,101061.83
2018-11-23T01:30:30.629Z,101060.11
2018-11-23T01:31:38.779Z,101054.92
2018-11-23T01:32:47.234Z,101058.80
2018-11-23T01:33:57.226Z,101059.69
2018-11-23T01:35:03.981Z,101055.38
2018-11-23T01:36:11.699Z,101058.83
2018-11-23T01:37:19.301Z,101052.36
2018-11-23T01:38:28.208Z,101054.09
2018-11-23T01:39:35.477Z,101057.52
2018-11-23T01:40:42.675Z,101055.38
2018-11-23T01:41:52.974Z,101047.63
2018-11-23T01:42:59.358Z,101050.64
2018-11-23T01:44:07.418Z,101058.81
2018-11-23T01:45:17.064Z,101055.78
2018-11-23T01:46:24.854Z,101060.55
2018-11-23T01:47:32.388Z,101057.95
2018-11-23T01:48:40.863Z,101057.09
2018-11-23T01:49:49.524Z,101057.09
2018-11-23T01:50:58.920Z,101061.39
2018-11-23T01:52:08.037Z,101054.06
2018-11-23T01:53:15.721Z,101056.24
2018-11-23T01:54:22.975Z,101052.79
2018-11-23T01:55:35.021Z,101056.23
2018-11-23T01:56:46.675Z,101054.94
2018-11-23T01:57:54.996Z,101057.95
2018-11-23T01:59:06.925Z,101059.27
2018-11-23T02:00:14.454Z,101055.38
2018-11-23T02:01:23.867Z,101060.11
2018-11-23T02:02:31.083Z,101054.06
2018-11-23T02:03:38.903Z,101052.77
2018-11-23T02:04:51.144Z,101047.60
2018-11-23T02:06:00.429Z,101047.60
2018-11-23T02:07:10.552Z,101048.89
2018-11-23T02:08:20.291Z,101053.23
2018-11-23T02:09:27.421Z,101053.22
2018-11-23T02:10:34.183Z,101047.61
2018-11-23T02:11:43.980Z,101054.56
2018-11-23T02:12:56.838Z,101052.81
2018-11-23T02:14:08.057Z,101056.27
2018-11-23T02:15:17.689Z,101058.00
2018-11-23T02:16:26.233Z,101046.74
2018-11-23T02:17:33.366Z,101049.78
2018-11-23T02:18:42.379Z,101049.34
2018-11-23T02:19:52.951Z,101049.77
2018-11-23T02:21:01.914Z,101039.39
2018-11-23T02:22:09.716Z,101045.89
2018-11-23T02:23:18.706Z,101041.56
2018-11-23T02:24:25.248Z,101045.45
2018-11-23T02:25:33.404Z,101047.20
2018-11-23T02:26:42.464Z,101045.46
2018-11-23T02:27:54.092Z,101047.63
2018-11-23T02:29:02.615Z,101045.45
2018-11-23T02:30:12.117Z,101042.43
2018-11-23T02:31:18.557Z,101041.55
2018-11-23T02:32:26.046Z,101042.01
2018-11-23T02:33:33.614Z,101034.22
2018-11-23T02:34:41.061Z,101043.71
2018-11-23T02:35:48.467Z,101040.27
2018-11-23T02:36:57.503Z,101041.56
2018-11-23T02:38:06.435Z,101043.28
2018-11-23T02:39:15.392Z,101045.02
2018-11-23T02:40:22.233Z,101047.14
2018-11-23T02:41:29.886Z,101048.89
2018-11-23T02:42:39.794Z,101049.75
2018-11-23T02:43:47.542Z,101051.95
2018-11-23T02:44:56.443Z,101049.80
2018-11-23T02:46:05.302Z,101052.80
2018-11-23T02:47:18.094Z,101048.47
2018-11-23T02:48:28.948Z,101044.60
2018-11-23T02:49:38.844Z,101048.92
2018-11-23T02:50:46.879Z,101050.23
2018-11-23T02:51:55.720Z,101046.34
2018-11-23T02:53:03.190Z,101048.05
2018-11-23T02:54:14.709Z,101053.66
2018-11-23T02:55:23.525Z,101048.04
2018-11-23T02:56:34.369Z,101050.21
2018-11-23T02:57:41.546Z,101047.16
2018-11-23T02:58:49.172Z,101048.91
2018-11-23T03:00:02.935Z,101046.30
2018-11-23T03:01:13.099Z,101048.05
2018-11-23T03:02:22.024Z,101046.33
2018-11-23T03:03:29.136Z,101046.75
2018-11-23T03:04:38.068Z,101044.59
2018-11-23T03:05:47.217Z,101043.30
2018-11-23T03:06:55.435Z,101049.77
2018-11-23T03:08:02.984Z,101047.20
2018-11-23T03:09:11.442Z,101054.07
2018-11-23T03:10:19.996Z,101054.52
2018-11-23T03:11:27.963Z,101047.17
2018-11-23T03:12:38.705Z,101050.20
2018-11-23T03:13:46.363Z,101045.02
2018-11-23T03:14:55.957Z,101045.47
2018-11-23T03:16:05.306Z,101039.85
2018-11-23T03:17:14.245Z,101042.03
2018-11-23T03:18:29.397Z,101045.45
2018-11-23T03:19:38.970Z,101042.45
2018-11-23T03:20:51.813Z,101038.99
2018-11-23T03:21:58.316Z,101039.86
2018-11-23T03:23:10.155Z,101037.68
2018-11-23T03:24:21.753Z,101041.16
2018-11-23T03:25:29.081Z,101040.73
2018-11-23T03:26:38.070Z,101037.27
2018-11-23T03:27:51.546Z,101038.13
2018-11-23T03:29:00.410Z,101033.38
2018-11-23T03:30:07.522Z,101035.97
2018-11-23T03:31:17.752Z,101037.27
2018-11-23T03:32:27.776Z,101030.80
2018-11-23T03:33:35.711Z,101035.53
2018-11-23T03:34:43.421Z,101038.55
2018-11-23T03:35:53.909Z,101039.42
2018-11-23T03:37:03.568Z,101040.30
2018-11-23T03:38:12.763Z,101040.70
2018-11-23T03:39:20.397Z,101032.51
2018-11-23T03:40:28.595Z,101035.09
2018-11-23T03:41:37.079Z,101038.13
2018-11-23T03:42:47.871Z,101036.83
2018-11-23T03:43:57.611Z,101035.95
2018-11-23T03:45:10.281Z,101036.40
2018-11-23T03:46:20.759Z,101040.29
2018-11-23T03:47:28.773Z,101035.97
2018-11-23T03:48:36.874Z,101038.98
2018-11-23T03:49:48.237Z,101038.56
2018-11-23T03:50:57.232Z,101036.84
2018-11-23T03:52:04.556Z,101036.83
2018-11-23T03:53:11.231Z,101038.13
2018-11-23T03:54:17.626Z,101036.40
2018-11-23T03:55:24.644Z,101035.11
2018-11-23T03:56:34.063Z,101037.69
2018-11-23T03:57:44.744Z,101036.42
2018-11-23T03:58:54.788Z,101036.84
2018-11-23T04:00:07.112Z,101038.55
2018-11-23T04:01:15.808Z,101032.08
2018-11-23T04:02:24.660Z,101031.67
2018-11-23T04:03:33.338Z,101031.22
2018-11-23T04:04:40.653Z,101026.06
2018-11-23T04:05:49.220Z,101027.77
2018-11-23T04:06:56.251Z,101029.95
2018-11-23T04:08:08.592Z,101025.64
2018-11-23T04:09:15.995Z,101029.50
2018-11-23T04:10:22.556Z,101029.50
2018-11-23T04:11:30.021Z,101025.60
2018-11-23T04:12:40.232Z,101031.22
2018-11-23T04:13:49.488Z,101027.33
2018-11-23T04:14:57.027Z,101025.20
2018-11-23T04:16:07.357Z,101028.62
2018-11-23T04:17:16.125Z,101018.70
2018-11-23T04:18:26.380Z,101023.91
2018-11-23T04:19:34.217Z,101022.17
2018-11-23T04:20:41.606Z,101017.42
2018-11-23T04:21:49.899Z,101020.88
2018-11-23T04:22:58.311Z,101017.86
2018-11-23T04:24:04.784Z,101021.32
2018-11-23T04:25:13.760Z,101019.17
2018-11-23T04:26:24.571Z,101020.45
2018-11-23T04:27:27.561Z,101012.67
2018-11-23T04:28:35.764Z,101026.47
2018-11-23T04:29:49.561Z,101019.59
2018-11-23T04:31:02.106Z,101020.45
2018-11-23T04:32:09.677Z,101020.03
2018-11-23T04:33:19.209Z,101019.59
2018-11-23T04:34:32.629Z,101023.48
2018-11-23T04:35:45.210Z,101022.17
2018-11-23T04:36:56.415Z,101021.77
2018-11-23T04:38:04.507Z,101021.77
2018-11-23T04:39:13.175Z,101016.13
2018-11-23T04:40:21.148Z,101014.85
2018-11-23T04:41:29.460Z,101012.25
2018-11-23T04:42:44.825Z,101017.00
2018-11-23T04:43:58.758Z,101014.83
2018-11-23T04:45:09.523Z,101016.58
2018-11-23T04:46:20.093Z,101017.00
2018-11-23T04:47:30.090Z,101017.84
2018-11-23T04:48:40.586Z,101013.11
2018-11-23T04:49:50.397Z,101013.53
2018-11-23T04:50:58.513Z,101013.99
2018-11-23T04:52:10.120Z,101010.53
2018-11-23T04:53:25.849Z,101015.28
2018-11-23T04:54:33.504Z,101019.59
2018-11-23T04:55:41.649Z,101013.11
2018-11-23T04:56:51.557Z,101012.69
2018-11-23T04:58:01.948Z,101009.25
2018-11-23T04:59:11.657Z,101009.23
2018-11-23T05:00:22.349Z,101013.11
2018-11-23T05:01:32.900Z,101007.95
2018-11-23T05:02:39.290Z,101008.38
2018-11-23T05:03:49.962Z,101009.67
2018-11-23T05:04:56.638Z,101013.55
2018-11-23T05:06:05.496Z,101013.56
2018-11-23T05:07:13.563Z,101009.23
2018-11-23T05:08:21.490Z,101010.09
2018-11-23T05:09:29.837Z,101013.97
2018-11-23T05:10:37.143Z,101013.13
2018-11-23T05:11:47.618Z,101012.70
2018-11-23T05:12:55.284Z,101019.14
2018-11-23T05:14:07.687Z,101014.42
2018-11-23T05:15:17.710Z,101013.13
2018-11-23T05:16:25.154Z,101011.84
2018-11-23T05:17:32.408Z,101008.79
2018-11-23T05:19:00.545Z,101010.11
2018-11-23T05:20:08.489Z,101008.38
2018-11-23T05:21:15.648Z,101006.21
2018-11-23T05:22:22.837Z,101004.92
2018-11-23T05:23:29.600Z,101001.05
2018-11-23T05:24:37.576Z,101001.47
2018-11-23T05:25:45.132Z,101006.22
2018-11-23T05:26:52.774Z,101001.48
2018-11-23T05:28:00.359Z,101001.03
2018-11-23T05:29:08.457Z,101008.80
2018-11-23T05:30:15.685Z,101001.91
2018-11-23T05:31:22.951Z,101001.05
2018-11-23T05:32:29.124Z,101002.78
2018-11-23T05:33:35.340Z,101000.17
2018-11-23T05:34:41.606Z,100997.59
2018-11-23T05:35:47.835Z,101003.63
2018-11-23T05:36:54.050Z,101003.61
2018-11-23T05:38:00.285Z,101009.23
2018-11-23T05:39:05.732Z,101001.88
2018-11-23T05:40:12.616Z,101005.77
2018-11-23T05:41:19.395Z,101005.80
2018-11-23T05:42:25.613Z,101007.50
2018-11-23T05:43:31.858Z,101004.06
2018-11-23T05:44:38.118Z,101010.09
2018-11-23T05:45:44.462Z,101007.53
2018-11-23T05:46:50.690Z,101009.67
2018-11-23T05:47:57.134Z,101011.81
2018-11-23T05:49:03.494Z,101006.23
2018-11-23T05:50:09.117Z,101002.32
2018-11-23T05:51:15.341Z,101004.50
2018-11-23T05:52:21.636Z,101013.11
2018-11-23T05:53:27.809Z,101001.48
2018-11-23T05:54:34.023Z,101008.38
2018-11-23T05:55:40.367Z,101006.22
2018-11-23T05:56:46.770Z,101004.50
2018-11-23T05:57:53.049Z,101003.63
2018-11-23T05:58:59.333Z,101001.91
2018-11-23T06:00:04.694Z,101006.67
2018-11-23T06:01:11.175Z,101001.91
2018-11-23T06:02:17.620Z,101003.19
2018-11-23T06:03:23.926Z,101001.92
2018-11-23T06:04:30.315Z,101004.08
2018-11-23T06:05:36.556Z,101001.47
2018-11-23T06:06:42.771Z,101004.06
2018-11-23T06:07:49.071Z,101004.93
2018-11-23T06:08:55.253Z,101005.37
2018-11-23T06:10:01.469Z,101004.08
2018-11-23T06:11:07.472Z,101002.34
2018-11-23T06:12:13.760Z,101001.06
2018-11-23T06:13:19.965Z,100999.32
2018-11-23T06:14:26.210Z,101001.92
2018-11-23T06:15:32.238Z,101004.48
2018-11-23T06:16:38.548Z,101008.39
2018-11-23T06:17:44.870Z,101005.80
2018-11-23T06:18:51.082Z,100998.91
2018-11-23T06:19:57.422Z,101001.47
2018-11-23T06:21:03.849Z,101004.06
2018-11-23T06:22:10.190Z,101007.10
2018-11-23T06:23:16.478Z,101005.81
2018-11-23T06:24:22.988Z,101004.50
2018-11-23T06:25:29.313Z,101002.78
2018-11-23T06:26:35.701Z,101003.21
2018-11-23T06:27:42.087Z,101007.52
2018-11-23T06:28:48.318Z,101004.50
2018-11-23T06:29:54.850Z,100999.74
2018-11-23T06:31:01.113Z,101003.20
2018-11-23T06:32:06.944Z,100999.74
2018-11-23T06:33:18.992Z,100998.91
2018-11-23T06:34:25.184Z,100998.45
2018-11-23T06:35:31.519Z,100997.15
2018-11-23T06:36:37.770Z,100998.91
2018-11-23T06:37:44.073Z,100998.91
2018-11-23T06:38:50.516Z,101001.90
2018-11-23T06:39:56.865Z,100993.30
2018-11-23T06:41:10.035Z,100997.61
2018-11-23T06:42:09.592Z,100996.32
2018-11-23T06:43:16.169Z,100997.61
2018-11-23T06:44:22.429Z,100995.88
2018-11-23T06:45:28.906Z,100993.71
2018-11-23T06:46:35.167Z,100997.16
2018-11-23T06:47:41.377Z,100992.00
2018-11-23T06:48:47.585Z,100993.70
2018-11-23T06:49:54.045Z,100994.58
2018-11-23T06:51:00.502Z,100992.86
2018-11-23T06:52:06.923Z,100991.98
2018-11-23T06:53:13.449Z,100994.58
2018-11-23T06:54:19.911Z,100994.15
2018-11-23T06:55:26.374Z,100996.75
2018-11-23T06:56:33.182Z,100996.74
2018-11-23T06:57:39.979Z,101000.20
2018-11-23T06:58:46.559Z,100998.90
2018-11-23T06:59:52.374Z,100998.05
2018-11-23T07:00:58.720Z,101002.36
2018-11-23T07:02:04.253Z,100993.70
2018-11-23T07:03:10.521Z,100989.83
2018-11-23T07:04:18.427Z,100990.27
2018-11-23T07:05:24.626Z,100985.53
2018-11-23T07:06:30.949Z,100987.66
2018-11-23T07:07:37.088Z,100986.80
2018-11-23T07:08:43.321Z,100985.08
2018-11-23T07:09:49.542Z,100996.30
2018-11-23T07:10:55.168Z,100993.72
2018-11-23T07:12:01.406Z,100994.58
2018-11-23T07:13:07.285Z,100997.60
2018-11-23T07:14:13.490Z,100994.13
2018-11-23T07:15:19.856Z,100995.86
2018-11-23T07:16:26.146Z,100989.83
2018-11-23T07:17:32.347Z,101003.20
2018-11-23T07:18:38.602Z,101006.21
2018-11-23T07:19:44.832Z,101004.05
2018-11-23T07:20:51.030Z,101007.50
2018-11-23T07:21:57.266Z,101008.38
2018-11-23T07:23:03.522Z,101006.64
2018-11-23T07:24:09.877Z,100999.31
2018-11-23T07:25:16.119Z,101002.34
2018-11-23T07:26:22.382Z,101000.16
2018-11-23T07:27:28.667Z,101003.19
2018-11-23T07:28:34.733Z,100993.69
2018-11-23T07:29:41.058Z,101001.05
2018-11-23T07:30:48.137Z,101001.90
2018-11-23T07:31:54.362Z,101001.45
2018-11-23T07:33:00.638Z,100995.42
2018-11-23T07:34:06.554Z,100995.84
2018-11-23T07:35:12.841Z,100996.27
2018-11-23T07:36:18.798Z,100994.53
2018-11-23T07:37:25.046Z,100989.37
2018-11-23T07:38:31.327Z,100991.97
2018-11-23T07:39:48.787Z,100996.27
2018-11-23T07:41:05.870Z,100999.31
2018-11-23T07:42:11.114Z,100994.11
2018-11-23T07:43:17.290Z,101002.73
2018-11-23T07:44:23.465Z,101000.59
2018-11-23T07:45:29.431Z,100998.83
2018-11-23T07:46:35.613Z,101002.29
2018-11-23T07:47:41.693Z,100998.41
2018-11-23T07:48:47.967Z,100998.41
2018-11-23T07:49:53.966Z,100998.83
2018-11-23T07:51:00.198Z,100999.70
2018-11-23T07:52:05.745Z,101001.44
2018-11-23T07:53:12.054Z,101001.45
2018-11-23T07:54:18.357Z,101001.84
2018-11-23T07:55:24.627Z,101005.74
2018-11-23T07:56:30.883Z,101003.57
2018-11-23T07:57:37.131Z,101006.61
2018-11-23T07:58:43.328Z,101010.48
2018-11-23T07:59:49.553Z,101012.22
2018-11-23T08:00:55.771Z,101008.73
2018-11-23T08:02:02.011Z,101004.87
2018-11-23T08:03:08.217Z,101000.95
2018-11-23T08:04:14.466Z,101008.72
2018-11-23T08:05:20.726Z,101005.28
2018-11-23T08:06:26.925Z,101003.10
2018-11-23T08:07:33.148Z,101000.52
2018-11-23T08:08:39.441Z,101000.08
2018-11-23T08:09:45.884Z,100997.47
2018-11-23T08:10:51.262Z,100994.42
2018-11-23T08:11:57.154Z,101001.31
2018-11-23T08:13:03.372Z,100999.16
2018-11-23T08:14:09.697Z,101000.02
2018-11-23T08:15:15.887Z,100998.70
2018-11-23T08:16:22.093Z,100998.72
2018-11-23T08:17:28.315Z,101000.86
2018-11-23T08:18:34.567Z,100993.51
2018-11-23T08:19:47.273Z,101003.02
2018-11-23T08:20:47.397Z,100999.55
2018-11-23T08:21:53.606Z,100997.78
2018-11-23T08:22:59.837Z,100999.94
2018-11-23T08:24:06.118Z,100999.92
2018-11-23T08:25:11.964Z,101008.15
2018-11-23T08:26:18.224Z,101003.79
2018-11-23T08:27:24.678Z,101007.70
2018-11-23T08:28:31.209Z,101006.40
2018-11-23T08:29:37.563Z,101005.53
2018-11-23T08:30:43.741Z,101001.20
2018-11-23T08:31:50.333Z,101002.93
2018-11-23T08:32:56.343Z,101004.64
2018-11-23T08:34:02.555Z,101005.48
2018-11-23T08:35:08.107Z,100995.92
2018-11-23T08:36:14.125Z,100998.52
2018-11-23T08:37:20.617Z,100996.35
2018-11-23T08:38:26.863Z,101000.68
2018-11-23T08:39:33.070Z,101003.68
2018-11-23T08:40:39.401Z,101000.63
2018-11-23T08:41:45.611Z,100999.77
2018-11-23T08:42:51.434Z,100998.91
2018-11-23T08:43:57.678Z,100999.71
2018-11-23T08:45:03.657Z,101004.00
2018-11-23T08:46:09.843Z,101002.71
2018-11-23T08:47:16.037Z,100997.95
2018-11-23T08:48:22.260Z,100999.66
2018-11-23T08:49:28.529Z,100995.34
2018-11-23T09:03:47.020Z,100996.63
2018-11-23T09:04:54.839Z,100996.59
2018-11-23T09:06:02.331Z,100998.56
2018-11-23T09:07:09.018Z,100994.63
2018-11-23T09:08:16.918Z,100999.36
2018-11-23T09:09:26.091Z,101001.53
2018-11-23T09:10:34.741Z,101004.45
2018-11-23T09:11:42.304Z,100996.08
2018-11-23T09:12:50.646Z,100995.92
2018-11-23T09:14:04.042Z,101000.30
2018-11-23T09:15:12.589Z,100998.96
2018-11-23T09:16:23.307Z,100996.83
2018-11-23T09:17:31.730Z,100996.04
2018-11-23T09:18:41.700Z,101003.77
2018-11-23T09:19:51.111Z,101001.95
2018-11-23T09:21:00.979Z,101001.91
2018-11-23T09:22:12.076Z,101001.88
2018-11-23T09:23:21.490Z,100996.31
2018-11-23T09:24:31.798Z,100995.09
2018-11-23T09:25:41.784Z,100989.54
2018-11-23T09:26:49.335Z,100995.13
2018-11-23T09:27:59.575Z,100990.64
2018-11-23T09:29:11.894Z,100991.50
2018-11-23T09:30:21.024Z,100988.03
2018-11-23T09:31:31.122Z,100986.70
2018-11-23T09:32:41.546Z,100994.42
2018-11-23T09:33:53.176Z,100989.86
2018-11-23T09:35:03.884Z,100983.88
2018-11-23T09:36:13.980Z,100986.05
2018-11-23T09:37:22.811Z,100979.11
2018-11-23T09:38:31.525Z,100975.69
2018-11-23T09:39:39.626Z,100975.69
2018-11-23T09:40:50.678Z,100972.77
2018-11-23T09:42:00.811Z,100982.65
2018-11-23T09:43:10.495Z,100972.14
2018-11-23T09:44:24.375Z,100971.65
2018-11-23T09:45:34.245Z,100978.11
2018-11-23T09:46:44.445Z,100974.16
2018-11-23T09:47:53.349Z,100973.17
2018-11-23T09:49:02.265Z,100975.89
2018-11-23T09:50:15.482Z,100972.90
2018-11-23T09:51:25.425Z,100978.48
2018-11-23T09:52:32.812Z,100975.88
2018-11-23T09:53:41.875Z,100980.72
2018-11-23T09:54:51.328Z,100980.77
2018-11-23T09:56:02.643Z,100980.34
2018-11-23T09:57:12.891Z,100980.49
2018-11-23T09:58:26.179Z,100981.84
2018-11-23T09:59:36.398Z,100975.20
2018-11-23T10:00:44.945Z,100969.13
2018-11-23T10:01:54.978Z,100971.42
2018-11-23T10:03:07.269Z,100964.20
2018-11-23T10:04:16.181Z,100962.91
2018-11-23T10:05:26.869Z,100964.62
2018-11-23T10:06:37.575Z,100957.70
2018-11-23T10:07:46.177Z,100957.00
2018-11-23T10:08:59.159Z,100957.45
2018-11-23T10:10:07.692Z,100955.72
2018-11-23T10:11:15.771Z,100953.97
2018-11-23T10:12:25.735Z,100954.28
2018-11-23T10:13:35.402Z,100957.62
2018-11-23T10:14:43.247Z,100957.58
2018-11-23T10:15:53.487Z,100956.75
2018-11-23T10:17:03.463Z,100953.46
2018-11-23T10:18:13.270Z,100956.95
2018-11-23T10:19:22.243Z,100959.50
2018-11-23T10:20:34.480Z,100954.72
2018-11-23T10:21:43.837Z,100957.95
2018-11-23T10:22:54.355Z,100953.84
2018-11-23T10:24:04.849Z,100955.02
2018-11-23T10:25:11.715Z,100952.30
2018-11-23T10:26:21.359Z,100954.65
2018-11-23T10:27:33.873Z,100954.95
2018-11-23T10:28:46.796Z,100956.38
2018-11-23T10:29:58.374Z,100953.89
2018-11-23T10:31:06.264Z,100947.68
2018-11-23T10:32:15.090Z,100945.30
2018-11-23T10:33:28.378Z,100945.55
2018-11-23T10:34:35.868Z,100939.31
2018-11-23T10:35:45.763Z,100940.20
2018-11-23T10:36:59.456Z,100938.01
2018-11-23T10:38:14.722Z,100934.51
2018-11-23T10:39:24.340Z,100933.52
2018-11-23T10:40:33.253Z,100930.48
2018-11-23T10:41:41.905Z,100935.61
2018-11-23T10:42:50.486Z,100934.28
2018-11-23T10:44:00.353Z,100931.58
2018-11-23T10:45:07.533Z,100937.08
2018-11-23T10:46:17.722Z,100938.31
2018-11-23T10:47:24.995Z,100938.35
2018-11-23T10:48:35.436Z,100931.95
2018-11-23T10:49:46.968Z,100933.02
2018-11-23T10:50:55.658Z,100933.66
2018-11-23T10:52:05.864Z,100937.55
2018-11-23T10:53:13.843Z,100932.64
2018-11-23T10:54:22.925Z,100938.24
2018-11-23T10:55:39.142Z,100927.33
2018-11-23T10:56:48.788Z,100923.33
2018-11-23T10:57:57.445Z,100920.30
2018-11-23T10:59:04.173Z,100917.24
2018-11-23T11:00:11.545Z,100921.27
2018-11-23T11:01:18.729Z,100922.72
2018-11-23T11:02:29.242Z,100920.09
2018-11-23T11:03:40.613Z,100922.05
2018-11-23T11:04:48.962Z,100921.67
2018-11-23T11:05:55.232Z,100918.77
2018-11-23T11:07:02.470Z,100910.19
2018-11-23T11:08:11.506Z,100913.53
2018-11-23T11:09:18.343Z,100910.78
2018-11-23T11:10:26.467Z,100904.80
2018-11-23T11:11:34.258Z,100909.22
2018-11-23T11:12:43.097Z,100906.95
2018-11-23T11:13:52.200Z,100903.91
2018-11-23T11:15:02.741Z,100905.44
2018-11-23T11:16:12.643Z,100901.13
2018-11-23T11:17:20.482Z,100894.58
2018-11-23T11:18:29.961Z,100897.92
2018-11-23T11:19:38.902Z,100900.95
2018-11-23T11:20:49.689Z,100898.13
2018-11-23T11:21:59.081Z,100900.00
2018-11-23T11:23:09.497Z,100890.78
2018-11-23T11:24:19.257Z,100894.24
2018-11-23T11:25:29.644Z,100894.13
2018-11-23T11:26:38.285Z,100893.70
2018-11-23T11:27:51.686Z,100893.80
2018-11-23T11:29:03.571Z,100892.98
2018-11-23T11:30:14.179Z,100888.01
2018-11-23T11:31:23.885Z,100885.80
2018-11-23T11:32:33.865Z,100881.30
2018-11-23T11:33:44.080Z,100891.91
2018-11-23T11:34:53.058Z,100889.52
2018-11-23T11:36:03.864Z,100888.97
2018-11-23T11:37:17.765Z,100893.70
2018-11-23T11:38:26.790Z,100890.09
2018-11-23T11:39:36.518Z,100886.02
2018-11-23T11:40:46.556Z,100883.83
2018-11-23T11:41:54.891Z,100882.52
2018-11-23T11:43:03.615Z,100875.67
2018-11-23T11:44:12.845Z,100881.58
2018-11-23T11:45:23.384Z,100872.99
2018-11-23T11:46:35.067Z,100873.77
2018-11-23T11:47:41.446Z,100870.55
2018-11-23T11:48:53.338Z,100869.16
2018-11-23T11:50:01.595Z,100876.81
2018-11-23T11:51:12.224Z,100871.31
2018-11-23T11:52:19.613Z,100874.86
2018-11-23T11:53:27.179Z,100878.81
2018-11-23T11:54:35.961Z,100875.27
2018-11-23T11:55:45.020Z,100877.09
2018-11-23T11:56:56.571Z,100870.73
2018-11-23T11:58:02.863Z,100869.98
2018-11-23T11:59:11.815Z,100872.55
2018-11-23T12:00:24.343Z,100867.90
2018-11-23T12:01:31.553Z,100866.00
2018-11-23T12:02:38.167Z,100866.28
2018-11-23T12:05:30.506Z,100860.87
2018-11-23T12:06:36.768Z,100861.67
2018-11-23T12:07:42.697Z,100859.45
2018-11-23T12:08:48.918Z,100854.25
2018-11-23T12:09:55.152Z,100856.00
2018-11-23T12:11:01.042Z,100854.55
2018-11-23T12:12:07.381Z,100852.17
2018-11-23T12:13:13.668Z,100853.11
2018-11-23T12:14:19.975Z,100846.20
2018-11-23T12:15:26.164Z,100849.30
2018-11-23T12:16:33.674Z,100839.14
2018-11-23T12:17:39.575Z,100840.95
2018-11-23T12:18:46.019Z,100836.70
2018-11-23T12:19:52.233Z,100839.54
2018-11-23T12:20:58.610Z,100835.80
2018-11-23T12:22:04.739Z,100837.50
2018-11-23T12:23:10.409Z,100834.63
2018-11-23T12:24:16.622Z,100838.42
2018-11-23T12:25:22.892Z,100836.89
2018-11-23T12:26:29.078Z,100835.50
2018-11-23T12:27:36.123Z,100834.80
2018-11-23T12:28:43.610Z,100824.52
2018-11-23T12:29:51.302Z,100827.41
2018-11-23T12:30:58.225Z,100827.93
2018-11-23T12:32:07.107Z,100824.50
2018-11-23T12:33:13.697Z,100823.48
2018-11-23T12:34:19.905Z,100822.44
2018-11-23T12:35:26.119Z,100826.12
2018-11-23T12:36:32.347Z,100822.00
2018-11-23T12:37:38.571Z,100824.06
2018-11-23T12:38:44.829Z,100821.21
2018-11-23T12:39:51.077Z,100815.80
2018-11-23T12:40:57.266Z,100818.31
2018-11-23T12:42:03.637Z,100816.41
2018-11-23T12:43:09.845Z,100816.77
2018-11-23T12:44:16.098Z,100816.52
2018-11-23T12:45:21.987Z,100817.00
2018-11-23T12:46:28.406Z,100819.28
2018-11-23T12:47:34.639Z,100810.49
2018-11-23T12:48:41.056Z,100813.28
2018-11-23T12:49:47.881Z,100804.89
2018-11-23T12:50:54.182Z,100807.36
2018-11-23T12:52:00.474Z,100809.48
2018-11-23T12:53:06.744Z,100807.45
2018-11-23T12:54:12.948Z,100806.72
2018-11-23T12:55:19.188Z,100800.03
2018-11-23T12:56:25.383Z,100799.83
2018-11-23T12:57:32.001Z,100801.74
2018-11-23T12:58:38.544Z,100794.38
2018-11-23T12:59:45.448Z,100793.89
2018-11-23T13:00:51.923Z,100790.61
2018-11-23T13:01:58.085Z,100785.52
2018-11-23T13:03:05.600Z,100792.14
2018-11-23T13:04:13.214Z,100786.23
2018-11-23T13:05:20.649Z,100789.61
2018-11-23T13:06:29.308Z,100783.69
2018-11-23T13:07:36.551Z,100782.03
2018-11-23T13:08:44.041Z,100779.17
2018-11-23T13:09:51.077Z,100779.22
2018-11-23T13:10:58.287Z,100784.02
2018-11-23T13:12:05.928Z,100779.34
2018-11-23T13:13:13.279Z,100777.72
2018-11-23T13:14:20.555Z,100781.63